Time;durP1;ratioP1;P1;durP2;ratioP2;P2;SDS_P1;SDS_P2;PMS_P1;PMS_P2;Temp;Humidity;BMP_temperature;BMP_pressure;BME280_temperature;BME280_humidity;BME280_pressure;Samples;Min_cycle;Max_cycle;Signal;HPM_P1;HPM_P2
2022/06/27 00:01:04;;;;;;;0.10;0.10;;;;;;;22.43;53.85;101111.06;5141695;27;20057;-38
2022/06/27 00:03:30;;;;;;;0.10;0.10;;;;;;;22.42;53.66;101109.44;5141511;27;20070;-39
2022/06/27 00:05:56;;;;;;;0.10;0.10;;;;;;;22.43;53.94;101116.63;5121912;27;20103;-38
2022/06/27 00:08:22;;;;;;;0.10;0.10;;;;;;;22.42;53.70;101112.19;5142519;27;20050;-40
2022/06/27 00:10:48;;;;;;;0.10;0.10;;;;;;;22.42;53.94;101112.19;5139723;27;20064;-41
2022/06/27 00:13:13;;;;;;;0.10;0.10;;;;;;;22.41;53.71;101108.59;5141179;27;20051;-39
2022/06/27 00:15:39;;;;;;;0.10;0.10;;;;;;;22.41;53.78;101111.38;5139929;27;20473;-39
2022/06/27 00:18:05;;;;;;;0.10;0.10;;;;;;;22.42;53.64;101114.97;5117762;27;20089;-39
2022/06/27 00:20:31;;;;;;;0.10;0.10;;;;;;;22.42;53.59;101114.97;5124692;27;20062;-38
2022/06/27 00:22:57;;;;;;;0.10;0.10;;;;;;;22.42;53.70;101114.97;5142352;27;20096;-39
2022/06/27 00:25:22;;;;;;;0.10;0.10;;;;;;;22.42;53.51;101120.53;5121325;27;20428;-39
2022/06/27 00:27:48;;;;;;;0.10;0.10;;;;;;;22.41;53.92;101119.72;5142022;27;20099;-39
2022/06/27 00:30:14;;;;;;;0.10;0.10;;;;;;;22.42;53.68;101117.75;5139703;27;20053;-38
2022/06/27 00:32:39;;;;;;;0.10;0.10;;;;;;;22.41;53.56;101108.59;5122374;27;20393;-40
2022/06/27 00:35:06;;;;;;;0.10;0.10;;;;;;;22.42;53.59;101113.03;5140907;27;20126;-38
2022/06/27 00:37:32;;;;;;;0.10;0.10;;;;;;;22.42;53.57;101121.34;5122343;27;20067;-37
2022/06/27 00:39:57;;;;;;;0.10;0.10;;;;;;;22.41;53.82;101102.22;5142920;27;20057;-38
2022/06/27 00:42:23;;;;;;;0.10;0.10;;;;;;;22.41;53.77;101104.97;5141926;27;20381;-40
2022/06/27 00:44:49;;;;;;;0.10;0.10;;;;;;;22.41;53.78;101114.16;5138046;27;20046;-39
2022/06/27 00:47:15;;;;;;;0.10;0.10;;;;;;;22.42;53.86;101118.56;5135861;27;20038;-38
2022/06/27 00:49:41;;;;;;;0.10;0.10;;;;;;;22.42;53.88;101126.06;5140122;27;20465;-37
2022/06/27 00:52:09;;;;;;;0.10;0.10;;;;;;;22.42;53.91;101129.69;5140213;27;20143;-38
2022/06/27 00:54:36;;;;;;;0.10;0.10;;;;;;;22.42;53.86;101142.72;5120142;27;21309;-38
2022/06/27 00:57:02;;;;;;;0.10;0.10;;;;;;;22.42;53.93;101145.50;5124262;27;20470;-38
2022/06/27 00:59:28;;;;;;;0.10;0.10;;;;;;;22.42;53.93;101148.28;5136825;27;20430;-38
2022/06/27 01:01:54;;;;;;;0.10;0.10;;;;;;;22.40;53.75;101148.56;5106280;27;20527;-39
2022/06/27 01:04:20;;;;;;;0.10;0.10;;;;;;;22.41;53.67;101141.91;5138962;27;20039;-40
2022/06/27 01:06:49;;;;;;;0.10;0.10;;;;;;;22.41;53.65;101128.03;5120763;27;20066;-39
2022/06/27 01:09:14;;;;;;;0.10;0.10;;;;;;;22.41;53.78;101136.34;5119373;27;20491;-39
2022/06/27 01:11:40;;;;;;;0.10;0.10;;;;;;;22.41;53.65;101129.94;5144095;27;20042;-38
2022/06/27 01:14:06;;;;;;;0.10;0.10;;;;;;;22.41;54.01;101136.34;5142545;27;20456;-40
2022/06/27 01:16:31;;;;;;;0.10;0.10;;;;;;;22.41;53.85;101130.81;5144739;27;20552;-38
2022/06/27 01:18:57;;;;;;;0.10;0.10;;;;;;;22.42;53.79;101120.53;5142689;27;20053;-39
2022/06/27 01:21:25;;;;;;;0.10;0.10;;;;;;;22.42;53.75;101120.53;5142804;27;20446;-40
2022/06/27 01:23:52;;;;;;;0.10;0.10;;;;;;;22.41;54.29;101119.72;5125124;27;20078;-39
2022/06/27 01:26:19;;;;;;;0.10;0.10;;;;;;;22.42;54.10;101121.34;5141324;27;20493;-38
2022/06/27 01:28:45;;;;;;;0.10;0.10;;;;;;;22.41;54.00;101114.16;5141623;27;20051;-40
2022/06/27 01:31:12;;;;;;;0.10;0.10;;;;;;;22.41;53.75;101122.47;5141385;27;20074;-39
2022/06/27 01:33:38;;;;;;;0.10;0.10;;;;;;;22.41;54.11;101124.41;5143978;27;20465;-38
2022/06/27 01:38:51;;;;;;;0.10;0.10;;;;;;;22.41;53.86;101114.16;5129093;27;20151;-38
2022/06/27 01:41:17;;;;;;;0.10;0.10;;;;;;;22.40;53.49;101090.28;5143797;27;20477;-40
2022/06/27 01:43:44;;;;;;;0.10;0.10;;;;;;;22.41;53.82;101093.88;5138313;27;20043;-38
2022/06/27 01:46:10;;;;;;;0.10;0.10;;;;;;;22.40;53.50;101095.84;5122858;27;20445;-40
2022/06/27 01:48:37;;;;;;;0.10;0.10;;;;;;;22.40;53.68;101089.47;5127890;27;20034;-40
2022/06/27 01:51:02;;;;;;;0.10;0.10;;;;;;;22.42;53.64;101087.22;5143962;27;20079;-40
2022/06/27 01:53:28;;;;;;;0.10;0.10;;;;;;;22.41;53.86;101096.66;5145352;27;20385;-40
2022/06/27 01:55:54;;;;;;;0.10;0.10;;;;;;;22.41;54.02;101094.72;5146207;27;20092;-41
2022/06/27 01:58:20;;;;;;;0.10;0.10;;;;;;;22.41;53.92;101091.09;5138237;27;20066;-38
2022/06/27 02:00:46;;;;;;;0.10;0.10;;;;;;;22.41;53.57;101088.31;5140647;27;20077;-38
2022/06/27 02:03:12;;;;;;;0.10;0.10;;;;;;;22.41;54.07;101086.41;5143333;27;20747;-38
2022/06/27 02:05:38;;;;;;;0.10;0.10;;;;;;;22.41;53.57;101083.63;5143479;27;20073;-39
2022/06/27 02:08:04;;;;;;;0.10;0.10;;;;;;;22.41;54.18;101082.78;5144408;27;20082;-39
2022/06/27 02:10:30;;;;;;;0.10;0.10;;;;;;;22.40;54.05;101068.09;5126817;27;20388;-38
2022/06/27 02:12:56;;;;;;;0.10;0.10;;;;;;;22.42;54.00;101073.34;5123103;27;20084;-38
2022/06/27 02:15:22;;;;;;;0.10;0.10;;;;;;;22.41;54.02;101063.34;5124099;27;20141;-38
2022/06/27 02:17:48;;;;;;;0.10;0.10;;;;;;;22.40;53.80;101056.97;5121267;27;20522;-40
2022/06/27 02:20:14;;;;;;;0.10;0.10;;;;;;;22.40;54.16;101051.44;5125368;27;20043;-40
2022/06/27 02:22:40;;;;;;;0.10;0.10;;;;;;;22.41;53.76;101046.72;5143931;27;20496;-40
2022/06/27 02:25:06;;;;;;;0.10;0.10;;;;;;;22.41;53.76;101047.56;5141226;27;20079;-38
2022/06/27 02:27:34;;;;;;;0.10;0.10;;;;;;;22.40;53.92;101040.34;5140479;27;20074;-39
2022/06/27 02:30:00;;;;;;;;;;;;;;;22.41;53.56;101047.56;5147861;27;20043;-38
2022/06/27 02:32:28;;;;;;;0.10;0.10;;;;;;;22.41;53.98;101052.25;5141314;27;20262;-38
2022/06/27 02:34:56;;;;;;;0.10;0.10;;;;;;;22.40;53.93;101039.50;5142196;27;20121;-40
2022/06/27 02:37:23;;;;;;;0.10;0.10;;;;;;;22.41;53.58;101035.59;5122966;27;20091;-40
2022/06/27 02:39:48;;;;;;;0.10;0.10;;;;;;;22.41;53.70;101035.59;5141168;27;20200;-38
2022/06/27 02:42:17;;;;;;;0.10;0.10;;;;;;;22.41;53.73;101035.59;5119905;27;20465;-40
2022/06/27 02:44:45;;;;;;;0.10;0.10;;;;;;;22.41;53.93;101030.06;5124397;27;20035;-38
2022/06/27 02:47:12;;;;;;;0.10;0.10;;;;;;;22.40;53.91;101020.91;5141553;27;20081;-37
2022/06/27 02:49:38;;;;;;;0.10;0.10;;;;;;;22.39;54.14;101016.50;5141575;27;20089;-38
2022/06/27 02:52:15;;;;;;;0.10;0.10;;;;;;;22.40;53.71;101020.91;5120931;27;20085;-38
2022/06/27 02:54:48;;;;;;;0.10;0.10;;;;;;;22.40;54.01;101011.75;5141815;27;20125;-38
2022/06/27 02:57:20;;;;;;;0.10;0.10;;;;;;;22.39;53.84;101013.72;5146119;27;20454;-39
2022/06/27 02:59:48;;;;;;;0.10;0.10;;;;;;;22.40;53.87;101020.91;5139103;27;20086;-38
2022/06/27 03:02:15;;;;;;;0.10;0.10;;;;;;;22.40;53.69;101020.09;5125446;27;20092;-38
2022/06/27 03:04:41;;;;;;;0.10;0.10;;;;;;;22.41;54.04;101025.34;5144445;27;20390;-38
2022/06/27 03:07:07;;;;;;;0.10;0.10;;;;;;;22.41;53.78;101024.50;5141991;27;20047;-40
2022/06/27 03:09:32;;;;;;;0.10;0.10;;;;;;;22.40;53.84;101018.13;5143681;27;20453;-39
2022/06/27 03:11:58;;;;;;;0.20;0.20;;;;;;;22.40;53.72;101001.50;5140478;27;20047;-39
2022/06/27 03:14:23;;;;;;;0.10;0.10;;;;;;;22.40;53.72;101001.50;5143001;27;20043;-40
2022/06/27 03:16:50;;;;;;;0.10;0.10;;;;;;;22.40;54.00;100989.56;5139370;27;20469;-39
2022/06/27 03:19:15;;;;;;;0.10;0.10;;;;;;;22.39;53.78;100985.97;5144723;27;20188;-37
2022/06/27 03:21:41;;;;;;;0.10;0.10;;;;;;;22.40;53.88;100990.38;5143402;27;20047;-39
2022/06/27 03:24:07;;;;;;;0.10;0.10;;;;;;;22.40;53.85;100992.34;5144768;27;20057;-38
2022/06/27 03:26:33;;;;;;;0.10;0.10;;;;;;;22.39;54.00;100999.84;5143901;27;20453;-40
2022/06/27 03:28:58;;;;;;;0.10;0.10;;;;;;;22.40;53.86;101011.75;5141153;27;20051;-40
2022/06/27 03:31:24;;;;;;;0.10;0.10;;;;;;;22.40;53.65;101020.09;5143771;27;20485;-40
2022/06/27 03:33:50;;;;;;;0.10;0.10;;;;;;;22.40;53.55;101012.59;5140199;27;20107;-40
2022/06/27 03:36:16;;;;;;;0.10;0.10;;;;;;;22.40;53.82;101006.22;5122413;27;20053;-40
2022/06/27 03:38:41;;;;;;;0.10;0.10;;;;;;;22.39;54.01;101008.16;5138192;27;20039;-41
2022/06/27 03:41:07;;;;;;;0.10;0.10;;;;;;;22.39;53.77;101016.50;5141889;27;20043;-38
2022/06/27 03:43:33;;;;;;;0.13;0.13;;;;;;;22.39;54.13;101024.81;5125662;27;20063;-38
2022/06/27 03:45:58;;;;;;;0.10;0.10;;;;;;;22.40;53.65;101025.63;5144166;27;20749;-39
2022/06/27 03:51:10;;;;;;;0.10;0.10;;;;;;;22.39;53.70;101035.91;5129409;27;20099;-37
2022/06/27 03:53:36;;;;;;;0.10;0.10;;;;;;;22.40;53.99;101039.50;5141406;27;20043;-38
2022/06/27 03:56:02;;;;;;;0.10;0.10;;;;;;;22.39;53.63;101041.47;5126760;27;20091;-36
2022/06/27 03:58:28;;;;;;;0.10;0.10;;;;;;;22.40;53.67;101042.28;5137886;27;20050;-39
2022/06/27 04:00:54;;;;;;;0.10;0.10;;;;;;;22.39;53.64;101041.47;5141795;27;20154;-38
2022/06/27 04:03:19;;;;;;;0.10;0.10;;;;;;;22.39;53.85;101038.69;5138102;27;20050;-40
2022/06/27 04:05:45;;;;;;;0.10;0.10;;;;;;;22.40;53.78;101031.19;5141138;27;20494;-38
2022/06/27 04:08:11;;;;;;;0.10;0.10;;;;;;;22.39;53.84;101035.91;5137901;27;20064;-37
2022/06/27 04:10:36;;;;;;;0.10;0.10;;;;;;;22.39;53.87;101038.69;5143717;27;20053;-38
2022/06/27 04:13:02;;;;;;;0.10;0.10;;;;;;;22.40;53.63;101039.50;5142492;27;20597;-36
2022/06/27 04:15:28;;;;;;;0.10;0.10;;;;;;;22.40;53.95;101037.56;5138075;27;20043;-40
2022/06/27 04:17:53;;;;;;;0.10;0.10;;;;;;;22.39;54.11;101038.69;5139338;27;20054;-38
2022/06/27 04:20:19;;;;;;;0.10;0.10;;;;;;;22.40;53.95;101036.75;5139634;27;20080;-38
2022/06/27 04:22:45;;;;;;;0.10;0.10;;;;;;;22.39;54.00;101054.53;5139940;27;20043;-38
2022/06/27 04:25:11;;;;;;;0.10;0.10;;;;;;;22.40;53.88;101061.72;5142280;27;20039;-38
2022/06/27 04:27:36;;;;;;;0.10;0.10;;;;;;;22.40;53.95;101048.66;5123593;27;20049;-38
2022/06/27 04:30:03;;;;;;;0.10;0.10;;;;;;;22.39;53.71;101043.41;5143316;27;20054;-40
2022/06/27 04:32:29;;;;;;;0.17;0.17;;;;;;;22.40;53.63;101022.88;5143868;27;20066;-38
2022/06/27 04:34:55;;;;;;;0.10;0.10;;;;;;;22.38;53.64;101014.84;5124896;27;20088;-39
2022/06/27 04:37:21;;;;;;;0.10;0.10;;;;;;;22.40;53.66;101017.31;5139952;27;20134;-40
2022/06/27 04:39:47;;;;;;;0.10;0.10;;;;;;;22.40;54.01;101033.97;5140330;27;20080;-38
2022/06/27 04:42:13;;;;;;;0.10;0.10;;;;;;;22.39;53.43;101030.38;5119265;27;20074;-39
2022/06/27 04:44:40;;;;;;;0.10;0.10;;;;;;;22.39;53.60;101027.59;5125836;27;20457;-38
2022/06/27 04:47:07;;;;;;;0.10;0.10;;;;;;;22.40;53.78;101028.41;5119046;27;20078;-38
2022/06/27 04:49:33;;;;;;;0.10;0.10;;;;;;;22.41;53.81;101038.38;5124024;27;20091;-40
2022/06/27 04:51:59;;;;;;;0.10;0.10;;;;;;;22.40;53.62;101037.56;5124810;27;20073;-38
2022/06/27 04:54:26;;;;;;;0.10;0.10;;;;;;;22.40;53.68;101037.56;5143389;27;20051;-37
2022/06/27 04:56:53;;;;;;;0.10;0.10;;;;;;;22.41;53.68;101032.84;5143268;27;20070;-38
2022/06/27 04:59:20;;;;;;;0.10;0.10;;;;;;;22.39;54.02;101033.16;5148549;27;20058;-39
2022/06/27 05:01:47;;;;;;;0.10;0.10;;;;;;;22.39;53.86;101035.91;5146754;27;20090;-39
2022/06/27 05:04:13;;;;;;;0.10;0.10;;;;;;;22.39;53.72;101018.44;5145399;27;20129;-39
2022/06/27 05:06:38;;;;;;;0.10;0.10;;;;;;;22.40;53.86;101017.31;5142277;27;20046;-39
2022/06/27 05:09:04;;;;;;;0.10;0.10;;;;;;;22.41;53.66;101016.19;5142476;27;20047;-40
2022/06/27 05:11:30;;;;;;;0.10;0.10;;;;;;;22.39;53.53;100997.06;5140193;27;20388;-39
2022/06/27 05:13:55;;;;;;;0.10;0.10;;;;;;;22.40;53.44;100978.47;5142388;27;20042;-39
2022/06/27 05:16:21;;;;;;;0.10;0.10;;;;;;;22.41;53.50;100975.41;5140688;27;20039;-40
2022/06/27 05:18:47;;;;;;;0.10;0.10;;;;;;;22.40;53.84;100982.06;5139866;27;20401;-38
2022/06/27 05:21:32;;;;;;;0.10;0.10;;;;;;;22.40;53.62;100984.84;5111916;27;20071;-41
2022/06/27 05:23:58;;;;;;;0.10;0.10;;;;;;;22.41;53.62;100980.09;5143692;27;20046;-41
2022/06/27 05:26:24;;;;;;;0.10;0.10;;;;;;;22.39;53.56;100961.00;5140627;27;20043;-39
2022/06/27 05:28:49;;;;;;;0.10;0.10;;;;;;;22.40;53.69;100953.50;5143211;27;21368;-40
2022/06/27 05:31:15;;;;;;;0.10;0.10;;;;;;;22.40;54.10;100934.91;5121772;27;20130;-39
2022/06/27 05:33:42;;;;;;;0.10;0.10;;;;;;;22.39;54.14;100926.88;5143172;27;20390;-42
2022/06/27 05:36:08;;;;;;;0.10;0.10;;;;;;;22.41;53.73;100914.38;5142495;27;20066;-36
2022/06/27 05:38:36;;;;;;;0.10;0.10;;;;;;;22.43;53.99;100909.31;5120268;27;20173;-40
2022/06/27 05:41:02;;;;;;;0.10;0.10;;;;;;;22.42;53.97;100940.16;5140337;27;20066;-41
2022/06/27 05:43:28;;;;;;;0.10;0.10;;;;;;;22.41;53.98;100964.31;5123804;27;20289;-40
2022/06/27 05:45:53;;;;;;;0.10;0.10;;;;;;;22.42;54.23;100993.69;5144002;27;20042;-40
2022/06/27 05:48:20;;;;;;;0.10;0.10;;;;;;;22.43;54.08;101033.38;5138738;27;20127;-39
2022/06/27 05:50:46;;;;;;;0.10;0.10;;;;;;;22.41;54.03;101019.81;5125573;27;20095;-40
2022/06/27 05:53:12;;;;;;;0.10;0.10;;;;;;;22.41;54.02;101017.03;5120959;27;20462;-42
2022/06/27 05:55:38;;;;;;;0.10;0.10;;;;;;;22.41;54.01;101021.72;5126815;27;20046;-42
2022/06/27 05:58:04;;;;;;;0.10;0.10;;;;;;;22.41;54.04;101035.59;5112720;27;20427;-43
2022/06/27 06:00:30;;;;;;;0.10;0.10;;;;;;;22.42;54.15;101026.19;5122624;27;20153;-37
2022/06/27 06:02:57;;;;;;;0.10;0.10;;;;;;;22.41;53.99;101000.38;5126354;27;20043;-41
2022/06/27 06:05:23;;;;;;;0.10;0.10;;;;;;;22.41;54.18;100997.63;5140450;27;20077;-38
2022/06/27 06:07:49;;;;;;;0.10;0.10;;;;;;;22.40;54.20;101018.13;5123975;27;20040;-42
2022/06/27 06:10:15;;;;;;;0.15;0.15;;;;;;;22.41;54.09;101027.28;5143872;27;20043;-37
2022/06/27 06:12:41;;;;;;;0.10;0.10;;;;;;;22.42;54.24;101038.09;5123741;27;20131;-42
2022/06/27 06:15:08;;;;;;;0.10;0.10;;;;;;;22.42;53.84;101065.03;5127580;27;20087;-40
2022/06/27 06:17:36;;;;;;;0.10;0.10;;;;;;;22.41;54.18;101075.31;5121225;27;20165;-41
2022/06/27 06:20:05;;;;;;;0.10;0.10;;;;;;;22.40;53.75;101075.59;5141414;27;20052;-42
2022/06/27 06:22:30;;;;;;;0.10;0.10;;;;;;;22.41;54.09;101085.56;5121524;27;20070;-39
2022/06/27 06:24:56;;;;;;;0.10;0.10;;;;;;;22.40;53.57;101087.50;5138901;27;20404;-40
2022/06/27 06:27:22;;;;;;;0.10;0.10;;;;;;;22.40;53.72;101086.69;5142497;27;20141;-40
2022/06/27 06:29:48;;;;;;;0.10;0.10;;;;;;;22.41;53.52;101099.44;5142188;27;20165;-40
2022/06/27 06:32:13;;;;;;;0.10;0.10;;;;;;;22.40;53.79;101108.88;5143515;27;20054;-41
2022/06/27 06:34:40;;;;;;;0.10;0.10;;;;;;;22.39;53.95;101121.94;5124794;27;20436;-39
2022/06/27 06:37:06;;;;;;;0.10;0.10;;;;;;;22.40;53.83;101129.13;5120845;27;20070;-40
2022/06/27 06:39:38;;;;;;;0.10;0.10;;;;;;;22.39;53.64;101140.53;5123759;27;20450;-42
2022/06/27 06:42:04;;;;;;;0.10;0.10;;;;;;;22.40;54.01;101158.84;5144413;27;20075;-40
2022/06/27 06:44:31;;;;;;;0.10;0.10;;;;;;;22.41;53.83;101160.47;5120863;27;20089;-42
2022/06/27 06:46:57;;;;;;;0.10;0.10;;;;;;;22.39;53.80;101138.59;5120978;27;20134;-40
2022/06/27 06:49:23;;;;;;;0.10;0.10;;;;;;;22.40;53.54;101143.00;5140739;27;20510;-41
2022/06/27 06:51:49;;;;;;;0.10;0.10;;;;;;;22.39;53.67;101130.25;5143422;27;20477;-40
2022/06/27 06:54:20;;;;;;;0.10;0.10;;;;;;;22.40;53.68;101106.13;5141925;27;20073;-39
2022/06/27 06:56:50;;;;;;;0.10;0.10;;;;;;;22.40;53.43;101103.34;5120653;27;20066;-39
2022/06/27 06:59:16;;;;;;;0.10;0.10;;;;;;;22.40;53.63;101089.47;5125204;27;20491;-42
2022/06/27 07:01:43;;;;;;;0.10;0.10;;;;;;;22.39;53.68;101072.00;5125233;27;20073;-40
2022/06/27 07:04:11;;;;;;;0.10;0.10;;;;;;;22.40;53.85;101092.22;5141926;27;20081;-41
2022/06/27 07:06:38;;;;;;;0.10;0.10;;;;;;;22.40;53.65;101095.00;5144109;27;20743;-40
2022/06/27 07:09:04;;;;;;;0.10;0.10;;;;;;;22.39;53.49;101096.97;5118905;27;20535;-42
2022/06/27 07:11:31;;;;;;;0.10;0.10;;;;;;;22.37;54.30;101082.56;5138745;27;20378;-40
2022/06/27 07:13:58;;;;;;;0.10;0.10;;;;;;;22.41;54.00;101091.09;5122242;27;20070;-42
2022/06/27 07:16:25;;;;;;;0.10;0.10;;;;;;;22.41;53.78;101077.22;5120975;27;20501;-42
2022/06/27 07:18:54;;;;;;;0.10;0.10;;;;;;;22.42;53.68;101078.91;5120427;27;20082;-42
2022/06/27 07:21:21;;;;;;;0.10;0.10;;;;;;;22.20;55.16;101088.63;5121124;27;20078;-47
2022/06/27 07:23:48;;;;;;;0.10;0.10;;;;;;;21.99;55.69;101090.78;5146071;27;20070;-44
2022/06/27 07:26:14;;;;;;;0.10;0.10;;;;;;;21.96;56.02;101090.56;5125043;27;20074;-42
2022/06/27 07:28:41;;;;;;;0.10;0.10;;;;;;;21.96;55.97;101085.84;5107490;27;20420;-44
2022/06/27 07:31:12;;;;;;;0.10;0.10;;;;;;;21.95;56.21;101086.13;5124671;27;20701;-41
2022/06/27 07:33:39;;;;;;;0.10;0.10;;;;;;;21.95;56.42;101070.31;5138276;27;20047;-42
2022/06/27 07:36:08;;;;;;;0.10;0.10;;;;;;;21.97;56.31;101053.38;5140584;27;20161;-47
2022/06/27 07:38:38;;;;;;;0.10;0.10;;;;;;;21.88;56.41;101055.97;5139691;27;20488;-44
2022/06/27 07:41:05;;;;;;;0.10;0.10;;;;;;;21.82;56.64;101070.22;5144405;27;20074;-41
2022/06/27 07:43:33;;;;;;;0.17;0.17;;;;;;;21.74;56.94;101086.38;5144799;27;20481;-45
2022/06/27 07:46:01;;;;;;;0.10;0.10;;;;;;;21.72;57.34;101096.94;5118895;27;20122;-44
2022/06/27 07:48:27;;;;;;;0.10;0.10;;;;;;;21.75;57.18;101101.88;5123266;27;20470;-41
2022/06/27 07:50:54;;;;;;;0.10;0.10;;;;;;;21.77;57.19;101102.41;5142873;27;20070;-44
2022/06/27 07:53:20;;;;;;;0.10;0.10;;;;;;;21.91;57.00;101104.50;5144201;27;20054;-36
2022/06/27 07:55:51;;;;;;;0.10;0.10;;;;;;;21.88;57.36;101110.63;5143976;27;20120;-38
2022/06/27 07:58:19;;;;;;;0.10;0.10;;;;;;;21.89;55.77;101112.25;5141186;27;20078;-41
2022/06/27 08:00:47;;;;;;;0.10;0.10;;;;;;;21.86;56.69;101113.69;5122799;27;20038;-42
2022/06/27 08:03:47;;;;;;;0.10;0.10;;;;;;;21.83;56.81;101119.00;5119501;27;20457;-41
2022/06/27 08:06:00;;;;;;;0.10;0.10;;;;;;;21.81;56.88;101135.09;5108630;27;20049;-41
2022/06/27 08:08:27;;;;;;;0.10;0.10;;;;;;;21.82;57.16;101150.63;5119679;27;20577;-41
2022/06/27 08:10:53;;;;;;;0.10;0.10;;;;;;;21.79;57.00;101161.16;5107002;27;20074;-40
2022/06/27 08:13:19;;;;;;;0.10;0.10;;;;;;;21.75;57.28;101162.84;5120318;27;20353;-42
2022/06/27 08:15:47;;;;;;;0.10;0.10;;;;;;;21.78;57.01;101158.69;5119728;27;20046;-44
2022/06/27 08:18:14;;;;;;;0.10;0.10;;;;;;;21.77;57.13;101163.41;5140545;27;20042;-41
2022/06/27 08:20:40;;;;;;;0.10;0.10;;;;;;;21.75;56.98;101160.09;5137307;27;20090;-42
2022/06/27 08:23:07;;;;;;;0.13;0.13;;;;;;;21.74;56.98;101157.63;5137127;27;20134;-42
2022/06/27 08:25:34;;;;;;;0.10;0.10;;;;;;;21.74;56.72;101152.91;5143864;27;20142;-42
2022/06/27 08:28:00;;;;;;;0.10;0.10;;;;;;;21.78;56.98;101167.81;5126875;27;20122;-40
2022/06/27 08:30:27;;;;;;;0.10;0.10;;;;;;;21.89;56.41;101178.81;5122546;27;20133;-40
2022/06/27 08:32:58;;;;;;;0.10;0.10;;;;;;;21.89;56.74;101198.22;5143022;27;20073;-41
2022/06/27 08:35:24;;;;;;;0.10;0.10;;;;;;;21.86;56.80;101213.50;5143203;27;20497;-40
2022/06/27 08:37:51;;;;;;;0.10;0.10;;;;;;;21.84;56.79;101210.19;5142614;27;20456;-41
2022/06/27 08:40:17;;;;;;;0.10;0.10;;;;;;;21.81;57.06;101193.31;5140190;27;20094;-44
2022/06/27 08:42:44;;;;;;;0.10;0.10;;;;;;;21.85;56.81;101195.22;5111773;27;20138;-41
2022/06/27 08:45:12;;;;;;;0.10;0.10;;;;;;;21.87;56.78;101190.19;5127641;27;20046;-40
2022/06/27 08:47:38;;;;;;;0.10;0.10;;;;;;;21.89;57.09;101179.66;5122713;27;20458;-40
2022/06/27 08:50:04;;;;;;;0.10;0.10;;;;;;;21.86;57.00;101198.81;5145851;27;20043;-42
2022/06/27 08:52:31;;;;;;;0.10;0.10;;;;;;;21.95;56.74;101208.16;5148020;27;20043;-40
2022/06/27 08:54:56;;;;;;;0.10;0.10;;;;;;;22.02;56.77;101216.94;5144930;27;20083;-40
2022/06/27 08:57:22;;;;;;;0.10;0.10;;;;;;;21.98;56.88;101218.66;5137554;27;20046;-46
2022/06/27 08:59:54;;;;;;;0.10;0.10;;;;;;;21.98;56.82;101233.34;5126389;27;20067;-45
2022/06/27 09:02:23;;;;;;;0.10;0.10;;;;;;;21.93;57.05;101238.94;5145299;27;20141;-43
2022/06/27 09:04:58;;;;;;;0.10;0.10;;;;;;;21.97;56.81;101230.84;5142948;27;20491;-44
2022/06/27 09:07:48;;;;;;;0.10;0.10;;;;;;;22.07;56.43;101225.22;5142185;27;20529;-41
2022/06/27 09:10:35;;;;;;;0.10;0.10;;;;;;;22.08;56.38;101229.66;5123013;27;20043;-45
2022/06/27 09:13:06;;;;;;;0.10;0.10;;;;;;;21.95;56.79;101233.09;5129813;27;20075;-44
2022/06/27 09:18:20;;;;;;;0.17;0.17;;;;;;;21.90;56.72;101224.84;5173617;27;20209;-45
2022/06/27 09:21:09;;;;;;;0.10;0.10;;;;;;;21.92;56.67;101209.53;5152107;27;20146;-40
2022/06/27 09:23:39;;;;;;;0.13;0.13;;;;;;;21.92;56.76;101200.41;5133754;27;20067;-41
2022/06/27 09:26:09;;;;;;;0.10;0.10;;;;;;;21.95;56.60;101199.84;5132334;27;20085;-40
2022/06/27 09:28:39;;;;;;;0.10;0.10;;;;;;;21.98;56.68;101208.41;5145345;27;20070;-40
2022/06/27 09:31:10;;;;;;;0.10;0.10;;;;;;;22.12;56.34;101208.56;5126025;27;20075;-40
2022/06/27 09:33:41;;;;;;;0.10;0.10;;;;;;;22.12;56.40;101202.16;5137705;27;20081;-40
2022/06/27 09:36:09;;;;;;;0.10;0.10;;;;;;;22.14;56.31;101203.53;5116200;27;20142;-41
2022/06/27 09:38:39;;;;;;;0.10;0.10;;;;;;;22.07;56.48;101204.97;5120852;27;20457;-39
2022/06/27 09:41:06;;;;;;;0.10;0.10;;;;;;;22.01;56.63;101213.34;5143276;27;20089;-38
2022/06/27 09:43:34;;;;;;;0.10;0.10;;;;;;;22.02;56.62;101203.06;5112148;27;20075;-40
2022/06/27 09:46:00;;;;;;;0.20;0.20;;;;;;;22.08;56.57;101206.63;5135159;27;20089;-39
2022/06/27 09:48:27;;;;;;;0.10;0.10;;;;;;;22.15;56.18;101207.97;5135014;27;20059;-40
2022/06/27 09:50:53;;;;;;;0.10;0.10;;;;;;;22.08;56.32;101199.13;5129744;27;20478;-39
2022/06/27 09:53:25;;;;;;;0.10;0.10;;;;;;;22.04;56.54;101200.84;5133325;27;20101;-40
2022/06/27 09:55:52;;;;;;;0.10;0.10;;;;;;;21.98;56.85;101202.03;5131402;27;20520;-41
2022/06/27 09:58:17;;;;;;;0.10;0.10;;;;;;;22.02;56.62;101215.00;5131160;27;20078;-40
2022/06/27 10:00:44;;;;;;;0.30;0.30;;;;;;;22.02;56.62;101201.16;5131036;27;20038;-39
2022/06/27 10:03:10;;;;;;;0.10;0.10;;;;;;;22.11;56.49;101189.41;5109390;27;20074;-41
2022/06/27 10:05:41;;;;;;;0.20;0.20;;;;;;;22.08;56.59;101182.50;5132653;27;20121;-41
2022/06/27 10:08:07;;;;;;;0.10;0.10;;;;;;;21.98;56.92;101179.84;5129739;27;20089;-40
2022/06/27 10:11:08;;;;;;;0.10;0.10;;;;;;;22.08;56.78;101174.16;5109903;27;20058;-40
2022/06/27 10:13:35;;;;;;;0.10;0.10;;;;;;;22.07;56.74;101194.72;5117530;27;20073;-40
2022/06/27 10:16:16;;;;;;;0.10;0.10;;;;;;;22.08;56.74;101201.91;5114050;27;20376;-40
2022/06/27 10:21:40;;;;;;;0.10;0.10;;;;;;;22.04;56.84;101198.06;5177591;27;20129;-40
2022/06/27 10:27:03;;;;;;;0.10;0.10;;;;;;;21.99;56.98;101206.44;5159419;27;20455;-41
2022/06/27 10:32:07;;;;;;;0.10;0.10;;;;;;;22.11;56.87;101214.38;5164948;27;20217;-40
2022/06/27 10:40:25;;;;;;;0.10;0.10;;;;;;;22.10;57.08;101205.19;5172383;27;20204;-42
2022/06/27 10:42:55;;;;;;;0.10;0.10;;;;;;;22.08;57.39;101203.84;5131518;27;20092;-40
2022/06/27 10:47:58;;;;;;;0.10;0.10;;;;;;;22.00;58.16;101221.97;5175132;27;20201;-40
2022/06/27 10:50:28;;;;;;;0.10;0.10;;;;;;;22.09;57.92;101238.78;5163388;27;20068;-37
2022/06/27 10:53:28;;;;;;;0.10;0.10;;;;;;;22.09;58.10;101225.75;5164811;27;20129;-38
2022/06/27 10:55:54;;;;;;;0.10;0.10;;;;;;;21.99;58.35;101237.78;5152285;27;20085;-40
2022/06/27 10:58:23;;;;;;;0.10;0.10;;;;;;;21.97;58.48;101233.63;5166849;27;20066;-40
2022/06/27 11:00:49;;;;;;;0.10;0.10;;;;;;;21.99;58.43;101235.00;5166359;27;20086;-40
2022/06/27 11:03:25;;;;;;;0.10;0.10;;;;;;;21.98;58.45;101227.81;5146866;27;20046;-39
2022/06/27 11:08:28;;;;;;;0.10;0.10;;;;;;;21.96;58.90;101229.22;5167505;27;20450;-39
2022/06/27 11:10:54;;;;;;;0.10;0.10;;;;;;;21.94;58.78;101223.13;5150835;27;20047;-40
2022/06/27 11:13:42;;;;;;;0.10;0.10;;;;;;;21.94;58.72;101223.97;5146383;27;20043;-41
2022/06/27 11:16:09;;;;;;;;;;;;;;;21.96;58.61;101226.44;5132215;27;20145;-39
2022/06/27 11:18:47;;;;;;;0.10;0.10;;;;;;;21.95;58.52;101233.94;5128934;27;19998;-40
2022/06/27 11:21:15;;;;;;;0.10;0.10;;;;;;;21.95;58.28;101233.94;5133618;27;20245;-40
2022/06/27 11:23:57;;;;;;;;;;;;;;;22.00;58.22;101233.88;5129889;27;20129;-40
2022/06/27 11:26:25;;;;;;;0.10;0.10;;;;;;;22.04;58.17;101242.44;5132554;27;20010;-40
2022/06/27 11:32:08;;;;;;;0.10;0.10;;;;;;;22.01;58.10;101223.59;5132264;27;20078;-40
2022/06/27 11:34:27;;;;;;;0.10;0.10;;;;;;;22.03;57.83;101221.38;5126452;27;20238;-40
2022/06/27 11:36:54;;;;;;;0.10;0.10;;;;;;;22.01;57.51;101223.59;5147359;27;20456;-41
2022/06/27 11:39:30;;;;;;;0.10;0.10;;;;;;;21.97;57.30;101215.03;5128832;27;20059;-39
2022/06/27 11:41:58;;;;;;;0.10;0.10;;;;;;;21.95;57.48;101216.47;5142955;27;20127;-41
2022/06/27 11:44:24;;;;;;;;;;;;;;;21.96;56.99;101216.16;5124357;27;20464;-40
2022/06/27 11:46:51;;;;;;;0.10;0.10;;;;;;;21.97;57.15;101217.00;5109082;27;20296;-41
2022/06/27 11:49:27;;;;;;;0.10;0.10;;;;;;;21.92;56.92;101217.88;5125299;27;20089;-40
2022/06/27 11:51:57;;;;;;;0.10;0.10;;;;;;;21.91;56.80;101218.16;5105682;27;20078;-40
2022/06/27 11:54:23;;;;;;;0.10;0.10;;;;;;;21.90;56.77;101227.63;5108211;28;20039;-40
2022/06/27 11:56:51;;;;;;;0.10;0.10;;;;;;;21.96;56.77;101229.22;5125922;28;20170;-39
2022/06/27 11:59:18;;;;;;;0.10;0.10;;;;;;;21.99;56.63;101240.53;5105503;28;20090;-40